createdAt,value
2023-03-16T00:00:56.642Z,14.68
2023-03-16T00:03:24.578Z,13.32
2023-03-16T00:05:54.138Z,11.93
2023-03-16T00:08:21.950Z,13.62
2023-03-16T00:10:52.418Z,15.50
2023-03-16T00:13:23.674Z,12.05
2023-03-16T00:15:55.169Z,11.10
2023-03-16T00:18:28.307Z,13.80
2023-03-16T00:21:02.480Z,14.63
2023-03-16T00:23:32.078Z,13.50
2023-03-16T00:26:02.498Z,16.48
2023-03-16T00:28:34.167Z,15.08
2023-03-16T00:31:07.400Z,16.02
2023-03-16T00:33:35.207Z,16.93
2023-03-16T00:36:08.786Z,20.62
2023-03-16T00:38:40.082Z,20.15
2023-03-16T00:41:09.478Z,16.05
2023-03-16T00:43:39.662Z,15.53
2023-03-16T00:46:11.319Z,12.73
2023-03-16T00:48:42.277Z,13.28
2023-03-16T00:51:14.972Z,10.30
2023-03-16T00:53:45.179Z,11.85
2023-03-16T00:56:13.497Z,12.95
2023-03-16T00:58:42.741Z,13.65
2023-03-16T01:01:18.963Z,12.33
2023-03-16T01:03:47.070Z,12.90
2023-03-16T01:06:17.362Z,13.60
2023-03-16T01:08:45.216Z,12.53
2023-03-16T01:11:20.489Z,14.15
2023-03-16T01:13:52.335Z,13.60
2023-03-16T01:16:22.107Z,13.43
2023-03-16T01:18:52.234Z,9.83
2023-03-16T01:21:21.206Z,11.10
2023-03-16T01:23:50.392Z,10.48
2023-03-16T01:26:20.088Z,10.75
2023-03-16T01:28:48.970Z,11.43
2023-03-16T01:31:16.678Z,9.50
2023-03-16T01:33:44.658Z,8.15
2023-03-16T01:36:17.590Z,8.73
2023-03-16T01:38:47.650Z,9.23
2023-03-16T01:41:16.072Z,8.53
2023-03-16T01:43:43.896Z,8.13
2023-03-16T01:46:25.363Z,10.90
2023-03-16T01:49:29.205Z,10.03
2023-03-16T01:52:02.477Z,10.65
2023-03-16T01:54:46.349Z,9.80
2023-03-16T01:57:24.064Z,11.95
2023-03-16T02:00:22.943Z,8.73
2023-03-16T02:03:00.326Z,8.83
2023-03-16T02:05:47.294Z,9.20
2023-03-16T02:08:17.930Z,9.38
2023-03-16T02:10:46.609Z,8.83
2023-03-16T02:13:15.029Z,9.78
2023-03-16T02:15:43.146Z,9.45
2023-03-16T02:18:11.714Z,9.58
2023-03-16T02:21:01.778Z,9.13
2023-03-16T02:23:32.201Z,8.48
2023-03-16T02:26:26.854Z,5.40
2023-03-16T02:29:31.348Z,7.45
2023-03-16T02:32:02.436Z,7.37
2023-03-16T02:34:30.438Z,10.58
2023-03-16T02:36:59.699Z,9.55
2023-03-16T02:39:28.038Z,7.58
2023-03-16T02:41:55.915Z,7.05
2023-03-16T02:44:33.145Z,6.47
2023-03-16T02:47:09.390Z,72.15
2023-03-16T02:49:40.977Z,19.10
2023-03-16T02:52:09.681Z,6.22
2023-03-16T02:54:38.500Z,8.28
2023-03-16T02:57:06.618Z,4.50
2023-03-16T02:59:35.061Z,3.05
2023-03-16T03:02:03.536Z,4.40
2023-03-16T03:04:32.456Z,3.25
2023-03-16T03:07:02.284Z,2.90
2023-03-16T03:09:32.707Z,3.60
2023-03-16T03:12:00.701Z,3.45
2023-03-16T03:14:28.427Z,6.90
2023-03-16T03:16:56.236Z,6.35
2023-03-16T03:19:24.062Z,1.98
2023-03-16T03:21:53.871Z,1.90
2023-03-16T03:24:21.755Z,3.55
2023-03-16T03:26:49.652Z,4.33
2023-03-16T03:29:19.817Z,4.17
2023-03-16T03:31:47.678Z,1.17
2023-03-16T03:34:16.132Z,4.25
2023-03-16T03:36:43.825Z,5.25
2023-03-16T03:39:18.872Z,4.08
2023-03-16T03:41:54.856Z,5.37
2023-03-16T03:44:24.723Z,8.43
2023-03-16T03:46:53.031Z,10.88
2023-03-16T03:49:21.254Z,4.80
2023-03-16T03:51:49.609Z,5.28
2023-03-16T03:54:19.422Z,2.60
2023-03-16T03:56:54.947Z,4.97
2023-03-16T03:59:22.776Z,1.37
2023-03-16T04:02:10.721Z,2.55
2023-03-16T04:04:41.975Z,4.05
2023-03-16T04:07:11.101Z,4.85
2023-03-16T04:09:39.515Z,4.50
2023-03-16T04:12:08.070Z,5.10
2023-03-16T04:14:35.704Z,2.95
2023-03-16T04:17:07.670Z,5.22
2023-03-16T04:19:36.843Z,7.50
2023-03-16T04:22:06.095Z,5.10
2023-03-16T04:24:33.882Z,8.03
2023-03-16T04:27:03.376Z,3.37
2023-03-16T04:29:31.499Z,4.70
2023-03-16T04:31:59.672Z,5.22
2023-03-16T04:34:27.914Z,6.90
2023-03-16T04:36:57.510Z,3.98
2023-03-16T04:39:25.190Z,6.47
2023-03-16T04:41:54.981Z,5.78
2023-03-16T04:44:25.379Z,6.20
2023-03-16T04:46:59.015Z,5.97
2023-03-16T04:49:28.525Z,7.20
2023-03-16T04:51:57.343Z,10.32
2023-03-16T04:54:25.640Z,13.30
2023-03-16T04:56:53.586Z,6.62
2023-03-16T04:59:29.767Z,13.53
2023-03-16T05:02:03.624Z,8.95
2023-03-16T05:04:31.740Z,7.62
2023-03-16T05:06:59.579Z,6.83
2023-03-16T05:09:29.322Z,9.58
2023-03-16T05:11:57.162Z,4.00
2023-03-16T05:14:24.969Z,4.60
2023-03-16T05:16:57.220Z,12.33
2023-03-16T05:19:25.038Z,12.07
2023-03-16T05:21:52.837Z,13.40
2023-03-16T05:24:20.732Z,8.63
2023-03-16T05:26:48.661Z,19.05
2023-03-16T05:29:16.764Z,11.70
2023-03-16T05:31:49.153Z,15.95
2023-03-16T05:34:18.411Z,13.35
2023-03-16T05:36:47.752Z,9.43
2023-03-16T05:39:16.536Z,10.60
2023-03-16T05:41:46.266Z,20.88
2023-03-16T05:44:15.946Z,8.83
2023-03-16T05:46:50.635Z,4.70
2023-03-16T05:49:18.650Z,8.33
2023-03-16T05:51:46.616Z,6.30
2023-03-16T05:54:14.378Z,5.12
2023-03-16T05:56:46.114Z,5.25
2023-03-16T05:59:16.935Z,3.80
2023-03-16T06:01:46.193Z,7.50
2023-03-16T06:04:14.034Z,7.17
2023-03-16T06:06:41.802Z,20.60
2023-03-16T06:09:14.586Z,18.07
2023-03-16T06:11:43.566Z,5.95
2023-03-16T06:14:12.111Z,9.60
2023-03-16T06:16:40.337Z,12.78
2023-03-16T06:19:08.774Z,7.70
2023-03-16T06:21:36.638Z,11.22
2023-03-16T06:24:08.329Z,2.72
2023-03-16T06:26:37.160Z,5.10
2023-03-16T06:29:06.657Z,6.42
2023-03-16T06:31:36.014Z,4.22
2023-03-16T06:34:07.907Z,5.37
2023-03-16T06:36:37.481Z,7.17
2023-03-16T06:39:06.574Z,12.50
2023-03-16T06:41:35.984Z,7.17
2023-03-16T06:44:05.688Z,3.72
2023-03-16T06:46:34.284Z,7.85
2023-03-16T06:49:03.972Z,5.22
2023-03-16T06:51:31.777Z,6.80
2023-03-16T06:53:59.256Z,4.65
2023-03-16T06:56:27.467Z,3.58
2023-03-16T06:58:57.638Z,5.03
2023-03-16T07:01:25.282Z,6.22
2023-03-16T07:03:56.300Z,3.10
2023-03-16T07:06:47.039Z,7.15
2023-03-16T07:09:35.282Z,2.58
2023-03-16T07:12:03.655Z,2.15
2023-03-16T07:14:31.993Z,4.00
2023-03-16T07:17:01.162Z,4.03
2023-03-16T07:19:29.545Z,5.10
2023-03-16T07:21:59.285Z,9.00
2023-03-16T07:24:27.813Z,3.15
2023-03-16T07:26:55.432Z,10.75
2023-03-16T07:29:28.439Z,9.03
2023-03-16T07:31:56.573Z,7.65
2023-03-16T07:34:26.357Z,13.60
2023-03-16T07:36:56.010Z,6.67
2023-03-16T07:39:25.057Z,5.58
2023-03-16T07:41:54.848Z,5.40
2023-03-16T07:44:24.305Z,3.83
2023-03-16T07:46:54.074Z,3.33
2023-03-16T07:49:23.830Z,4.33
2023-03-16T07:51:53.499Z,8.73
2023-03-16T07:54:23.917Z,3.90
2023-03-16T07:56:52.026Z,2.45
2023-03-16T07:59:25.078Z,3.50
2023-03-16T08:01:52.968Z,3.70
2023-03-16T08:04:21.744Z,2.85
2023-03-16T08:06:56.352Z,1.90
2023-03-16T08:09:25.719Z,2.58
2023-03-16T08:11:54.142Z,3.55
2023-03-16T08:14:23.265Z,2.80
2023-03-16T08:17:03.338Z,5.58
2023-03-16T08:19:32.021Z,4.10
2023-03-16T08:22:03.116Z,2.10
2023-03-16T08:24:32.928Z,3.35
2023-03-16T08:27:01.027Z,6.28
2023-03-16T08:29:29.562Z,3.25
2023-03-16T08:31:57.343Z,1.92
2023-03-16T08:34:28.300Z,3.60
2023-03-16T08:36:56.220Z,11.08
2023-03-16T08:39:24.621Z,10.58
2023-03-16T08:41:53.600Z,6.75
2023-03-16T08:44:26.873Z,5.30
2023-03-16T08:46:55.249Z,3.08
2023-03-16T08:49:23.654Z,7.90
2023-03-16T08:51:53.757Z,16.93
2023-03-16T08:54:22.370Z,19.92
2023-03-16T08:56:51.398Z,6.50
2023-03-16T08:59:29.779Z,7.12
2023-03-16T09:01:53.139Z,6.53
2023-03-16T09:04:21.564Z,7.25
2023-03-16T09:07:05.725Z,8.03
2023-03-16T09:09:20.907Z,5.37
2023-03-16T09:11:49.523Z,8.55
2023-03-16T09:14:18.499Z,3.98
2023-03-16T09:16:46.389Z,5.58
2023-03-16T09:19:14.313Z,7.97
2023-03-16T09:21:42.083Z,8.88
2023-03-16T09:24:10.218Z,8.60
2023-03-16T09:26:39.537Z,6.30
2023-03-16T09:29:07.595Z,5.92
2023-03-16T09:31:35.766Z,5.92
2023-03-16T09:34:04.370Z,6.20
2023-03-16T09:36:33.232Z,9.95
2023-03-16T09:39:02.802Z,7.97
2023-03-16T09:41:50.445Z,6.40
2023-03-16T09:44:42.172Z,4.25
2023-03-16T09:47:12.019Z,17.90
2023-03-16T09:49:48.949Z,7.47
2023-03-16T09:52:40.166Z,3.10
2023-03-16T09:55:33.154Z,3.52
2023-03-16T09:58:17.246Z,5.05
2023-03-16T10:01:03.470Z,3.58
2023-03-16T10:04:12.803Z,3.25
2023-03-16T10:06:46.311Z,7.53
2023-03-16T10:09:33.762Z,8.85
2023-03-16T10:12:04.676Z,6.92
2023-03-16T10:14:49.340Z,7.03
2023-03-16T10:17:23.952Z,5.80
2023-03-16T10:19:57.708Z,7.78
2023-03-16T10:22:33.140Z,6.25
2023-03-16T10:25:25.869Z,3.47
2023-03-16T10:27:54.001Z,10.40
2023-03-16T10:30:34.919Z,19.30
2023-03-16T10:33:26.074Z,8.70
2023-03-16T10:35:59.498Z,7.75
2023-03-16T10:39:03.902Z,7.37
2023-03-16T10:41:36.290Z,6.00
2023-03-16T10:44:16.960Z,6.58
2023-03-16T10:47:03.939Z,12.45
2023-03-16T10:49:45.282Z,5.55
2023-03-16T10:52:28.744Z,9.45
2023-03-16T10:55:00.620Z,7.00
2023-03-16T10:57:35.312Z,5.00
2023-03-16T11:00:15.152Z,4.60
2023-03-16T11:02:43.550Z,5.67
2023-03-16T11:05:30.737Z,14.00
2023-03-16T11:08:04.064Z,5.33
2023-03-16T11:10:49.364Z,5.60
2023-03-16T11:13:20.436Z,5.33
2023-03-16T11:16:19.688Z,7.75
2023-03-16T11:18:58.761Z,9.48
2023-03-16T11:22:18.482Z,14.55
2023-03-16T11:25:05.889Z,12.60
2023-03-16T11:28:10.817Z,10.88
2023-03-16T11:31:21.762Z,3.70
2023-03-16T11:33:50.008Z,12.90
2023-03-16T11:36:50.513Z,9.40
2023-03-16T11:39:32.296Z,5.70
2023-03-16T11:42:25.616Z,26.20
2023-03-16T11:45:17.230Z,9.60
2023-03-16T11:48:16.696Z,10.00
2023-03-16T11:51:09.869Z,6.28
2023-03-16T11:54:01.556Z,7.47
2023-03-16T11:56:37.910Z,5.70
2023-03-16T11:59:20.176Z,8.35
2023-03-16T12:02:14.848Z,6.00
2023-03-16T12:05:27.873Z,4.75
2023-03-16T12:08:07.431Z,8.60
2023-03-16T12:10:53.758Z,7.47
2023-03-16T12:14:14.002Z,9.38
2023-03-16T12:17:04.363Z,8.98
2023-03-16T12:19:55.594Z,9.70
2023-03-16T12:22:42.240Z,7.50
2023-03-16T12:25:20.464Z,7.62
2023-03-16T12:27:53.453Z,5.67
2023-03-16T12:30:50.650Z,6.00
2023-03-16T12:33:29.667Z,5.42
2023-03-16T12:36:18.380Z,9.93
2023-03-16T12:39:06.103Z,7.28
2023-03-16T12:42:05.371Z,9.05
2023-03-16T12:44:52.001Z,8.13
2023-03-16T12:47:35.382Z,6.35
2023-03-16T12:50:07.721Z,10.10
2023-03-16T12:52:46.425Z,6.55
2023-03-16T12:55:29.039Z,7.80
2023-03-16T12:58:06.986Z,14.83
2023-03-16T13:00:40.857Z,12.98
2023-03-16T13:03:16.725Z,18.73
2023-03-16T13:05:51.900Z,9.58
2023-03-16T13:08:21.043Z,10.18
2023-03-16T13:11:05.967Z,11.55
2023-03-16T13:13:33.950Z,22.82
2023-03-16T13:16:12.631Z,11.15
2023-03-16T13:18:44.031Z,8.70
2023-03-16T13:21:23.659Z,14.70
2023-03-16T13:23:58.941Z,7.62
2023-03-16T13:29:30.607Z,3.72
2023-03-16T13:32:12.815Z,12.40
2023-03-16T13:34:51.384Z,10.58
2023-03-16T13:37:21.339Z,14.47
2023-03-16T13:40:00.555Z,7.12
2023-03-16T13:42:33.651Z,8.20
2023-03-16T13:45:15.421Z,12.45
2023-03-16T13:47:44.896Z,5.70
2023-03-16T13:50:15.662Z,6.03
2023-03-16T13:52:53.872Z,4.72
2023-03-16T13:55:31.930Z,6.08
2023-03-16T13:58:01.144Z,4.35
2023-03-16T14:00:36.529Z,6.40
2023-03-16T14:03:15.683Z,10.82
2023-03-16T14:05:44.738Z,10.68
2023-03-16T14:08:19.909Z,9.00
2023-03-16T14:10:48.723Z,6.83
2023-03-16T14:13:36.041Z,13.08
2023-03-16T14:16:17.142Z,15.98
2023-03-16T14:21:29.883Z,27.32
2023-03-16T14:24:07.188Z,16.40
2023-03-16T14:26:46.971Z,10.88
2023-03-16T14:29:31.903Z,36.73
2023-03-16T14:31:59.926Z,29.45
2023-03-16T14:34:32.156Z,10.63
2023-03-16T14:37:09.534Z,6.20
2023-03-16T14:39:39.836Z,14.30
2023-03-16T14:42:30.789Z,18.45
2023-03-16T14:45:02.292Z,13.62
2023-03-16T14:47:33.480Z,6.90
2023-03-16T14:50:06.627Z,13.05
2023-03-16T14:52:35.031Z,5.30
2023-03-16T14:55:14.205Z,13.88
2023-03-16T14:57:44.729Z,7.97
2023-03-16T15:00:16.235Z,11.08
2023-03-16T15:03:07.102Z,11.15
2023-03-16T15:05:38.906Z,11.53
2023-03-16T15:08:26.740Z,14.43
2023-03-16T15:10:58.455Z,11.83
2023-03-16T15:13:46.026Z,9.05
2023-03-16T15:16:16.430Z,8.33
2023-03-16T15:18:44.139Z,11.38
2023-03-16T15:21:22.196Z,10.50
2023-03-16T15:23:50.257Z,6.67
2023-03-16T15:26:25.041Z,8.88
2023-03-16T15:28:52.135Z,10.82
2023-03-16T15:31:20.362Z,6.37
2023-03-16T15:33:48.592Z,12.45
2023-03-16T15:36:20.419Z,8.50
2023-03-16T15:38:51.716Z,15.58
2023-03-16T15:41:19.993Z,28.80
2023-03-16T15:43:47.605Z,14.78
2023-03-16T15:46:16.038Z,13.85
2023-03-16T15:48:43.841Z,20.05
2023-03-16T15:51:20.140Z,16.50
2023-03-16T15:53:58.988Z,23.07
2023-03-16T15:56:33.559Z,17.02
2023-03-16T15:59:05.750Z,26.62
2023-03-16T16:01:47.263Z,22.07
2023-03-16T16:04:22.994Z,21.55
2023-03-16T16:06:56.360Z,14.03
2023-03-16T16:09:25.069Z,17.02
2023-03-16T16:11:53.076Z,16.30
2023-03-16T16:14:24.401Z,18.23
2023-03-16T16:16:53.774Z,41.37
2023-03-16T16:19:21.750Z,27.67
2023-03-16T16:21:52.487Z,32.35
2023-03-16T16:24:20.196Z,12.73
2023-03-16T16:26:55.314Z,20.12
2023-03-16T16:29:25.170Z,21.07
2023-03-16T16:31:53.203Z,24.98
2023-03-16T16:34:23.992Z,21.52
2023-03-16T16:36:52.091Z,26.65
2023-03-16T16:39:20.498Z,21.25
2023-03-16T16:41:51.091Z,19.77
2023-03-16T16:44:26.704Z,18.98
2023-03-16T16:46:55.034Z,27.07
2023-03-16T16:49:30.492Z,20.40
2023-03-16T16:54:30.494Z,19.20
2023-03-16T16:57:00.578Z,23.52
2023-03-16T16:59:36.350Z,20.62
2023-03-16T17:02:31.154Z,38.42
2023-03-16T17:04:59.361Z,32.23
2023-03-16T17:07:27.384Z,36.38
2023-03-16T17:09:55.816Z,56.33
2023-03-16T17:12:24.552Z,35.90
2023-03-16T17:14:52.191Z,29.45
2023-03-16T17:17:21.841Z,37.38
2023-03-16T17:19:49.736Z,36.68
2023-03-16T17:22:27.721Z,42.23
2023-03-16T17:24:55.719Z,65.95
2023-03-16T17:27:32.571Z,57.15
2023-03-16T17:30:00.286Z,64.25
2023-03-16T17:32:28.239Z,77.95
2023-03-16T17:34:56.227Z,47.17
2023-03-16T17:37:24.381Z,51.77
2023-03-16T17:39:57.301Z,46.68
2023-03-16T17:42:25.951Z,41.92
2023-03-16T17:44:53.905Z,39.80
2023-03-16T17:47:25.863Z,40.15
2023-03-16T17:49:54.142Z,31.30
2023-03-16T17:52:25.550Z,32.55
2023-03-16T17:54:54.336Z,35.23
2023-03-16T17:57:29.346Z,29.32
2023-03-16T17:59:57.996Z,27.58
2023-03-16T18:02:40.500Z,33.67
2023-03-16T18:05:21.653Z,21.37
2023-03-16T18:07:51.232Z,23.40
2023-03-16T18:10:24.318Z,26.23
2023-03-16T18:13:03.312Z,24.95
2023-03-16T18:15:35.992Z,27.05
2023-03-16T18:18:09.809Z,28.52
2023-03-16T18:20:37.702Z,35.65
2023-03-16T18:23:25.584Z,40.98
2023-03-16T18:26:02.594Z,49.45
2023-03-16T18:28:31.396Z,40.48
2023-03-16T18:31:01.003Z,47.80
2023-03-16T18:33:36.173Z,36.83
2023-03-16T18:36:08.997Z,38.02
2023-03-16T18:38:40.887Z,40.35
2023-03-16T18:41:27.011Z,34.95
2023-03-16T18:43:58.420Z,28.73
2023-03-16T18:46:33.967Z,23.45
2023-03-16T18:49:20.106Z,18.98
2023-03-16T18:51:52.916Z,14.30
2023-03-16T18:54:28.297Z,15.30
2023-03-16T18:59:27.109Z,12.10
2023-03-16T19:01:55.099Z,13.55
2023-03-16T19:04:29.750Z,10.68
2023-03-16T19:06:58.946Z,6.55
2023-03-16T19:09:30.509Z,6.40
2023-03-16T19:11:59.159Z,13.48
2023-03-16T19:14:34.445Z,19.40
2023-03-16T19:17:02.221Z,13.43
2023-03-16T19:19:30.199Z,12.58
2023-03-16T19:22:07.597Z,17.98
2023-03-16T19:24:52.595Z,18.55
2023-03-16T19:27:31.833Z,18.12
2023-03-16T19:29:59.753Z,15.48
2023-03-16T19:32:27.621Z,12.53
2023-03-16T19:34:55.335Z,8.45
2023-03-16T19:37:24.657Z,8.78
2023-03-16T19:39:52.286Z,6.15
2023-03-16T19:42:36.629Z,5.47
2023-03-16T19:45:06.463Z,4.80
2023-03-16T19:47:35.673Z,11.55
2023-03-16T19:50:15.376Z,3.47
2023-03-16T19:52:43.567Z,4.42
2023-03-16T19:55:22.581Z,6.08
2023-03-16T19:57:55.747Z,5.12
2023-03-16T20:00:26.555Z,7.65
2023-03-16T20:02:56.657Z,4.67
2023-03-16T20:05:29.308Z,2.37
2023-03-16T20:08:00.991Z,4.58
2023-03-16T20:10:32.241Z,4.28
2023-03-16T20:13:01.562Z,6.00
2023-03-16T20:15:32.815Z,4.03
2023-03-16T20:18:00.711Z,11.12
2023-03-16T20:20:33.603Z,8.93
2023-03-16T20:23:01.587Z,7.67
2023-03-16T20:25:32.017Z,7.10
2023-03-16T20:28:03.327Z,3.33
2023-03-16T20:30:31.442Z,4.72
2023-03-16T20:32:59.264Z,4.33
2023-03-16T20:35:32.084Z,8.48
2023-03-16T20:38:00.465Z,5.58
2023-03-16T20:40:28.473Z,5.60
2023-03-16T20:42:56.223Z,5.95
2023-03-16T20:45:28.067Z,4.67
2023-03-16T20:47:56.381Z,8.03
2023-03-16T20:50:28.824Z,5.58
2023-03-16T20:52:57.408Z,5.30
2023-03-16T20:55:28.564Z,7.62
2023-03-16T20:57:57.192Z,6.72
2023-03-16T21:00:35.892Z,8.60
2023-03-16T21:03:16.312Z,6.90
2023-03-16T21:05:45.670Z,5.67
2023-03-16T21:08:15.218Z,8.68
2023-03-16T21:10:46.461Z,6.85
2023-03-16T21:13:30.880Z,7.37
2023-03-16T21:16:01.869Z,6.70
2023-03-16T21:18:30.873Z,9.60
2023-03-16T21:20:58.464Z,8.10
2023-03-16T21:23:27.135Z,8.20
2023-03-16T21:25:58.590Z,8.55
2023-03-16T21:28:28.521Z,6.90
2023-03-16T21:30:58.362Z,7.40
2023-03-16T21:33:39.665Z,7.03
2023-03-16T21:36:15.586Z,6.67
2023-03-16T21:38:43.824Z,6.83
2023-03-16T21:41:12.200Z,8.20
2023-03-16T21:43:42.388Z,7.72
2023-03-16T21:46:20.227Z,5.30
2023-03-16T21:48:54.252Z,6.58
2023-03-16T21:51:28.084Z,5.70
2023-03-16T21:53:55.845Z,3.70
2023-03-16T21:56:25.598Z,4.37
2023-03-16T21:58:55.631Z,4.12
2023-03-16T22:01:32.464Z,4.78
2023-03-16T22:04:08.427Z,8.60
2023-03-16T22:06:36.362Z,10.55
2023-03-16T22:09:04.275Z,9.25
2023-03-16T22:11:32.072Z,6.85
2023-03-16T22:14:00.956Z,6.58
2023-03-16T22:16:32.992Z,5.20
2023-03-16T22:19:00.790Z,4.92
2023-03-16T22:21:38.305Z,5.97
2023-03-16T22:24:13.451Z,5.58
2023-03-16T22:26:41.257Z,8.65
2023-03-16T22:29:29.629Z,3.85
2023-03-16T22:32:03.536Z,7.67
2023-03-16T22:34:42.128Z,11.28
2023-03-16T22:37:13.886Z,9.85
2023-03-16T22:39:41.698Z,13.40
2023-03-16T22:42:32.815Z,21.80
2023-03-16T22:45:00.744Z,19.75
2023-03-16T22:47:33.568Z,19.87
2023-03-16T22:50:01.324Z,19.48
2023-03-16T22:52:32.952Z,12.53
2023-03-16T22:55:03.977Z,13.93
2023-03-16T22:57:32.165Z,12.15
2023-03-16T23:00:03.467Z,12.98
2023-03-16T23:02:31.689Z,14.20
2023-03-16T23:04:59.384Z,11.88
2023-03-16T23:07:27.026Z,10.23
2023-03-16T23:09:55.214Z,11.80
2023-03-16T23:12:22.956Z,13.40
2023-03-16T23:14:50.548Z,12.90
2023-03-16T23:17:21.538Z,9.88
2023-03-16T23:19:49.453Z,11.93
2023-03-16T23:22:17.139Z,13.55
2023-03-16T23:24:45.247Z,18.07
2023-03-16T23:27:17.942Z,18.45
2023-03-16T23:29:46.189Z,17.57
2023-03-16T23:32:16.574Z,16.93
2023-03-16T23:34:44.747Z,15.48
2023-03-16T23:37:12.395Z,14.80
2023-03-16T23:39:40.238Z,16.07
2023-03-16T23:42:08.702Z,12.73
2023-03-16T23:44:36.817Z,15.40
2023-03-16T23:47:04.913Z,12.95
2023-03-16T23:49:36.467Z,12.80
2023-03-16T23:52:05.129Z,10.90
2023-03-16T23:54:32.841Z,9.88
2023-03-16T23:57:00.480Z,12.37
2023-03-16T23:59:28.230Z,14.80
